sensor_id;sensor_type;location;lat;lon;timestamp;pressure;altitude;pressure_sealevel;temperature;humidity
71126;BME280;58785;55.566;38.058;2023-02-16T00:00:56;101195.06;;;-1.52;67.88
71126;BME280;58785;55.566;38.058;2023-02-16T00:03:22;101187.53;;;-1.62;67.73
71126;BME280;58785;55.566;38.058;2023-02-16T00:05:48;101194.41;;;-1.58;67.66
71126;BME280;58785;55.566;38.058;2023-02-16T00:08:14;101184.16;;;-1.66;67.98
71126;BME280;58785;55.566;38.058;2023-02-16T00:10:40;101192.63;;;-1.58;67.95
71126;BME280;58785;55.566;38.058;2023-02-16T00:13:20;101190.06;;;-1.59;67.51
71126;BME280;58785;55.566;38.058;2023-02-16T00:16:18;101192.69;;;-1.59;67.82
71126;BME280;58785;55.566;38.058;2023-02-16T00:18:44;101197.88;;;-1.58;67.89
71126;BME280;58785;55.566;38.058;2023-02-16T00:21:10;101190.50;;;-1.75;67.73
71126;BME280;58785;55.566;38.058;2023-02-16T00:23:36;101193.00;;;-1.70;67.82
71126;BME280;58785;55.566;38.058;2023-02-16T00:26:02;101190.34;;;-1.68;67.77
71126;BME280;58785;55.566;38.058;2023-02-16T00:28:28;101185.06;;;-1.67;67.88
71126;BME280;58785;55.566;38.058;2023-02-16T00:30:53;101185.84;;;-1.65;67.90
71126;BME280;58785;55.566;38.058;2023-02-16T00:33:20;101189.44;;;-1.67;68.00
71126;BME280;58785;55.566;38.058;2023-02-16T00:35:48;101201.72;;;-1.71;68.04
71126;BME280;58785;55.566;38.058;2023-02-16T00:38:14;101196.75;;;-1.80;68.19
71126;BME280;58785;55.566;38.058;2023-02-16T00:40:40;101189.97;;;-1.87;68.11
71126;BME280;58785;55.566;38.058;2023-02-16T00:43:09;101175.97;;;-1.85;68.19
71126;BME280;58785;55.566;38.058;2023-02-16T00:45:38;101187.38;;;-1.87;67.87
71126;BME280;58785;55.566;38.058;2023-02-16T00:48:03;101174.41;;;-1.92;68.12
71126;BME280;58785;55.566;38.058;2023-02-16T00:50:31;101189.25;;;-1.92;68.14
71126;BME280;58785;55.566;38.058;2023-02-16T00:53:00;101187.63;;;-1.96;68.38
71126;BME280;58785;55.566;38.058;2023-02-16T00:55:32;101182.44;;;-1.98;68.09
71126;BME280;58785;55.566;38.058;2023-02-16T01:00:36;101190.13;;;-1.93;68.44
71126;BME280;58785;55.566;38.058;2023-02-16T01:03:06;101178.13;;;-2.00;68.32
71126;BME280;58785;55.566;38.058;2023-02-16T01:05:33;101197.97;;;-1.93;68.46
71126;BME280;58785;55.566;38.058;2023-02-16T01:08:00;101177.38;;;-2.04;68.41
71126;BME280;58785;55.566;38.058;2023-02-16T01:10:44;101190.28;;;-1.98;68.21
71126;BME280;58785;55.566;38.058;2023-02-16T01:16:10;101187.00;;;-2.06;68.86
71126;BME280;58785;55.566;38.058;2023-02-16T01:18:37;101194.59;;;-1.97;68.36
71126;BME280;58785;55.566;38.058;2023-02-16T01:21:02;101178.13;;;-2.00;68.29
71126;BME280;58785;55.566;38.058;2023-02-16T01:23:28;101197.47;;;-2.06;69.08
71126;BME280;58785;55.566;38.058;2023-02-16T01:25:53;101195.75;;;-2.07;69.19
71126;BME280;58785;55.566;38.058;2023-02-16T01:28:24;101182.03;;;-2.15;68.80
71126;BME280;58785;55.566;38.058;2023-02-16T01:30:51;101182.88;;;-2.15;69.09
71126;BME280;58785;55.566;38.058;2023-02-16T01:33:18;101181.03;;;-2.11;68.96
71126;BME280;58785;55.566;38.058;2023-02-16T01:35:45;101185.28;;;-2.07;68.81
71126;BME280;58785;55.566;38.058;2023-02-16T01:38:17;101179.94;;;-2.03;69.11
71126;BME280;58785;55.566;38.058;2023-02-16T01:40:56;101183.34;;;-1.99;68.55
71126;BME280;58785;55.566;38.058;2023-02-16T01:43:49;101183.41;;;-2.02;68.95
71126;BME280;58785;55.566;38.058;2023-02-16T01:46:37;101198.13;;;-1.98;68.82
71126;BME280;58785;55.566;38.058;2023-02-16T01:49:04;101185.16;;;-2.03;68.66
71126;BME280;58785;55.566;38.058;2023-02-16T01:51:36;101196.47;;;-2.02;69.35
71126;BME280;58785;55.566;38.058;2023-02-16T01:54:20;101201.69;;;-2.02;68.66
71126;BME280;58785;55.566;38.058;2023-02-16T01:56:58;101202.59;;;-2.03;68.95
71126;BME280;58785;55.566;38.058;2023-02-16T01:59:28;101199.97;;;-2.03;69.01
71126;BME280;58785;55.566;38.058;2023-02-16T02:02:01;101195.69;;;-2.06;68.67
71126;BME280;58785;55.566;38.058;2023-02-16T02:04:39;101204.25;;;-1.99;69.00
71126;BME280;58785;55.566;38.058;2023-02-16T02:07:43;101203.31;;;-1.96;68.79
71126;BME280;58785;55.566;38.058;2023-02-16T02:10:20;101198.72;;;-1.88;68.95
71126;BME280;58785;55.566;38.058;2023-02-16T02:15:37;101204.38;;;-1.73;68.43
71126;BME280;58785;55.566;38.058;2023-02-16T02:18:03;101198.53;;;-1.82;68.27
71126;BME280;58785;55.566;38.058;2023-02-16T02:43:07;101200.78;;;-1.99;69.24
71126;BME280;58785;55.566;38.058;2023-02-16T02:45:41;101201.69;;;-2.02;69.14
71126;BME280;58785;55.566;38.058;2023-02-16T02:48:08;101191.38;;;-2.07;68.86
71126;BME280;58785;55.566;38.058;2023-02-16T02:50:56;101191.47;;;-2.10;69.19
71126;BME280;58785;55.566;38.058;2023-02-16T02:53:45;101193.19;;;-2.09;69.02
71126;BME280;58785;55.566;38.058;2023-02-16T02:56:15;101202.56;;;-2.02;69.09
71126;BME280;58785;55.566;38.058;2023-02-16T02:59:04;101199.84;;;-1.97;69.06
71126;BME280;58785;55.566;38.058;2023-02-16T03:01:53;101198.97;;;-1.97;69.03
71126;BME280;58785;55.566;38.058;2023-02-16T03:04:24;101204.97;;;-1.94;69.19
71126;BME280;58785;55.566;38.058;2023-02-16T03:06:53;101196.41;;;-2.00;69.19
71126;BME280;58785;55.566;38.058;2023-02-16T03:09:21;101209.59;;;-2.04;68.99
71126;BME280;58785;55.566;38.058;2023-02-16T03:11:50;101202.63;;;-2.05;69.32
71126;BME280;58785;55.566;38.058;2023-02-16T03:15:05;101203.63;;;-2.09;69.05
71126;BME280;58785;55.566;38.058;2023-02-16T03:17:36;101203.69;;;-2.12;69.23
71126;BME280;58785;55.566;38.058;2023-02-16T03:20:21;101202.16;;;-2.19;69.40
71126;BME280;58785;55.566;38.058;2023-02-16T03:23:06;101204.69;;;-2.16;69.07
71126;BME280;58785;55.566;38.058;2023-02-16T03:25:51;101216.06;;;-2.18;69.28
71126;BME280;58785;55.566;38.058;2023-02-16T03:28:38;101201.41;;;-2.24;69.23
71126;BME280;58785;55.566;38.058;2023-02-16T03:31:28;101205.00;;;-2.28;69.67
71126;BME280;58785;55.566;38.058;2023-02-16T03:33:54;101221.44;;;-2.24;69.93
71126;BME280;58785;55.566;38.058;2023-02-16T03:36:26;101217.91;;;-2.22;69.80
71126;BME280;58785;55.566;38.058;2023-02-16T03:38:54;101216.13;;;-2.21;69.58
71126;BME280;58785;55.566;38.058;2023-02-16T03:41:20;101214.38;;;-2.19;69.54
71126;BME280;58785;55.566;38.058;2023-02-16T03:43:46;101211.00;;;-2.24;69.65
71126;BME280;58785;55.566;38.058;2023-02-16T03:46:12;101199.94;;;-2.34;69.93
71126;BME280;58785;55.566;38.058;2023-02-16T03:48:37;101192.38;;;-2.45;70.13
71126;BME280;58785;55.566;38.058;2023-02-16T03:51:03;101198.16;;;-2.34;70.36
71126;BME280;58785;55.566;38.058;2023-02-16T03:53:28;101203.41;;;-2.34;70.08
71126;BME280;58785;55.566;38.058;2023-02-16T03:55:54;101201.97;;;-2.45;70.70
71126;BME280;58785;55.566;38.058;2023-02-16T03:58:22;101190.03;;;-2.55;70.82
71126;BME280;58785;55.566;38.058;2023-02-16T04:00:50;101200.44;;;-2.54;70.89
71126;BME280;58785;55.566;38.058;2023-02-16T04:03:16;101189.25;;;-2.59;70.94
71126;BME280;58785;55.566;38.058;2023-02-16T04:05:43;101201.41;;;-2.58;71.20
71126;BME280;58785;55.566;38.058;2023-02-16T04:08:09;101196.25;;;-2.61;71.33
71126;BME280;58785;55.566;38.058;2023-02-16T04:10:36;101194.47;;;-2.59;71.04
71126;BME280;58785;55.566;38.058;2023-02-16T04:13:02;101198.66;;;-2.53;71.04
71126;BME280;58785;55.566;38.058;2023-02-16T04:15:29;101189.09;;;-2.53;70.58
71126;BME280;58785;55.566;38.058;2023-02-16T04:17:56;101194.22;;;-2.48;71.31
71126;BME280;58785;55.566;38.058;2023-02-16T04:20:24;101192.41;;;-2.46;70.44
71126;BME280;58785;55.566;38.058;2023-02-16T04:22:51;101181.16;;;-2.48;70.66
71126;BME280;58785;55.566;38.058;2023-02-16T04:25:18;101191.19;;;-2.33;70.50
71126;BME280;58785;55.566;38.058;2023-02-16T04:27:44;101185.19;;;-2.37;70.99
71126;BME280;58785;55.566;38.058;2023-02-16T04:30:14;101195.78;;;-2.43;70.74
71126;BME280;58785;55.566;38.058;2023-02-16T04:32:40;101183.00;;;-2.53;70.99
71126;BME280;58785;55.566;38.058;2023-02-16T04:35:06;101192.31;;;-2.43;71.26
71126;BME280;58785;55.566;38.058;2023-02-16T04:37:32;101195.75;;;-2.40;70.55
71126;BME280;58785;55.566;38.058;2023-02-16T04:39:59;101195.75;;;-2.40;71.01
71126;BME280;58785;55.566;38.058;2023-02-16T04:42:24;101197.34;;;-2.36;71.06
71126;BME280;58785;55.566;38.058;2023-02-16T04:44:50;101186.81;;;-2.33;70.93
71126;BME280;58785;55.566;38.058;2023-02-16T04:47:16;101192.03;;;-2.33;70.79
71126;BME280;58785;55.566;38.058;2023-02-16T04:49:42;101198.97;;;-2.32;70.59
71126;BME280;58785;55.566;38.058;2023-02-16T04:52:08;101198.84;;;-2.25;71.04
71126;BME280;58785;55.566;38.058;2023-02-16T04:54:34;101184.16;;;-2.31;70.89
71126;BME280;58785;55.566;38.058;2023-02-16T04:57:00;101203.47;;;-2.37;71.19
71126;BME280;58785;55.566;38.058;2023-02-16T04:59:25;101203.72;;;-2.46;71.65
71126;BME280;58785;55.566;38.058;2023-02-16T05:01:51;101210.91;;;-2.55;72.03
71126;BME280;58785;55.566;38.058;2023-02-16T05:04:20;101201.47;;;-2.61;71.93
71126;BME280;58785;55.566;38.058;2023-02-16T05:06:46;101191.03;;;-2.61;71.61
71126;BME280;58785;55.566;38.058;2023-02-16T05:09:12;101187.47;;;-2.57;71.84
71126;BME280;58785;55.566;38.058;2023-02-16T05:11:37;101195.09;;;-2.49;71.72
71126;BME280;58785;55.566;38.058;2023-02-16T05:14:33;101182.06;;;-2.51;71.47
71126;BME280;58785;55.566;38.058;2023-02-16T05:19:45;101200.88;;;-2.37;71.30
71126;BME280;58785;55.566;38.058;2023-02-16T05:22:12;101193.94;;;-2.38;70.78
71126;BME280;58785;55.566;38.058;2023-02-16T05:24:38;101210.19;;;-2.26;71.08
71126;BME280;58785;55.566;38.058;2023-02-16T05:27:06;101207.53;;;-2.25;70.98
71126;BME280;58785;55.566;38.058;2023-02-16T05:29:33;101196.38;;;-2.32;70.66
71126;BME280;58785;55.566;38.058;2023-02-16T05:31:59;101217.13;;;-2.25;70.97
71126;BME280;58785;55.566;38.058;2023-02-16T05:34:24;101213.00;;;-2.34;70.64
71126;BME280;58785;55.566;38.058;2023-02-16T05:36:50;101208.06;;;-2.46;71.56
71126;BME280;58785;55.566;38.058;2023-02-16T05:39:16;101202.00;;;-2.47;71.61
71126;BME280;58785;55.566;38.058;2023-02-16T05:41:42;101209.88;;;-2.48;71.34
71126;BME280;58785;55.566;38.058;2023-02-16T05:44:08;101203.84;;;-2.52;71.56
71126;BME280;58785;55.566;38.058;2023-02-16T05:46:35;101201.38;;;-2.56;71.39
71126;BME280;58785;55.566;38.058;2023-02-16T05:49:02;101188.50;;;-2.64;71.56
71126;BME280;58785;55.566;38.058;2023-02-16T05:51:28;101198.84;;;-2.61;71.45
71126;BME280;58785;55.566;38.058;2023-02-16T05:53:54;101201.47;;;-2.61;71.72
71126;BME280;58785;55.566;38.058;2023-02-16T05:56:20;101204.91;;;-2.59;71.66
71126;BME280;58785;55.566;38.058;2023-02-16T05:58:46;101205.91;;;-2.65;72.02
71126;BME280;58785;55.566;38.058;2023-02-16T06:01:12;101205.06;;;-2.65;71.52
71126;BME280;58785;55.566;38.058;2023-02-16T06:03:38;101208.44;;;-2.60;71.61
71126;BME280;58785;55.566;38.058;2023-02-16T06:06:04;101208.22;;;-2.52;71.36
71126;BME280;58785;55.566;38.058;2023-02-16T06:08:32;101198.81;;;-2.58;71.25
71126;BME280;58785;55.566;38.058;2023-02-16T06:10:58;101198.84;;;-2.61;71.83
71126;BME280;58785;55.566;38.058;2023-02-16T06:13:24;101209.13;;;-2.53;71.47
71126;BME280;58785;55.566;38.058;2023-02-16T06:15:52;101196.78;;;-2.47;71.24
71126;BME280;58785;55.566;38.058;2023-02-16T06:18:18;101208.84;;;-2.43;71.21
71126;BME280;58785;55.566;38.058;2023-02-16T06:20:44;101203.16;;;-2.58;71.17
71126;BME280;58785;55.566;38.058;2023-02-16T06:23:12;101199.63;;;-2.56;71.56
71126;BME280;58785;55.566;38.058;2023-02-16T06:25:48;101196.03;;;-2.52;70.97
71126;BME280;58785;55.566;38.058;2023-02-16T06:28:15;101196.06;;;-2.53;71.42
71126;BME280;58785;55.566;38.058;2023-02-16T06:30:41;101198.16;;;-2.34;70.77
71126;BME280;58785;55.566;38.058;2023-02-16T06:33:07;101200.69;;;-2.29;70.57
71126;BME280;58785;55.566;38.058;2023-02-16T06:35:33;101195.41;;;-2.27;70.25
71126;BME280;58785;55.566;38.058;2023-02-16T06:37:59;101199.59;;;-2.22;70.78
71126;BME280;58785;55.566;38.058;2023-02-16T06:40:25;101209.19;;;-2.22;70.76
71126;BME280;58785;55.566;38.058;2023-02-16T06:42:51;101203.06;;;-2.21;70.84
71126;BME280;58785;55.566;38.058;2023-02-16T06:45:16;101203.06;;;-2.21;70.70
71126;BME280;58785;55.566;38.058;2023-02-16T06:47:42;101201.94;;;-2.11;70.31
71126;BME280;58785;55.566;38.058;2023-02-16T06:50:09;101193.00;;;-2.03;70.37
71126;BME280;58785;55.566;38.058;2023-02-16T06:52:35;101188.38;;;-1.93;69.82
71126;BME280;58785;55.566;38.058;2023-02-16T06:55:02;101196.91;;;-1.86;70.17
71126;BME280;58785;55.566;38.058;2023-02-16T06:57:29;101194.47;;;-1.92;69.95
71126;BME280;58785;55.566;38.058;2023-02-16T06:59:55;101194.31;;;-1.86;69.76
71126;BME280;58785;55.566;38.058;2023-02-16T07:02:21;101186.31;;;-1.82;69.47
71126;BME280;58785;55.566;38.058;2023-02-16T07:04:47;101190.13;;;-1.62;69.52
71126;BME280;58785;55.566;38.058;2023-02-16T07:07:12;101202.09;;;-1.54;69.44
71126;BME280;58785;55.566;38.058;2023-02-16T07:09:38;101194.44;;;-1.60;69.04
71126;BME280;58785;55.566;38.058;2023-02-16T07:12:04;101195.38;;;-1.62;68.93
71126;BME280;58785;55.566;38.058;2023-02-16T07:14:31;101196.09;;;-1.57;69.03
71126;BME280;58785;55.566;38.058;2023-02-16T07:16:56;101200.34;;;-1.53;69.03
71126;BME280;58785;55.566;38.058;2023-02-16T07:19:24;101194.03;;;-1.46;69.19
71126;BME280;58785;55.566;38.058;2023-02-16T07:21:50;101185.13;;;-1.40;69.09
71126;BME280;58785;55.566;38.058;2023-02-16T07:24:16;101187.53;;;-1.33;68.76
71126;BME280;58785;55.566;38.058;2023-02-16T07:26:42;101184.69;;;-1.25;68.63
71126;BME280;58785;55.566;38.058;2023-02-16T07:29:07;101196.53;;;-1.13;68.69
71126;BME280;58785;55.566;38.058;2023-02-16T07:31:33;101183.06;;;-1.01;68.29
71126;BME280;58785;55.566;38.058;2023-02-16T07:33:59;101197.47;;;-0.87;67.61
71126;BME280;58785;55.566;38.058;2023-02-16T07:36:24;101176.75;;;-0.94;67.86
71126;BME280;58785;55.566;38.058;2023-02-16T07:38:50;101188.28;;;-0.73;67.65
71126;BME280;58785;55.566;38.058;2023-02-16T07:41:16;101189.72;;;-0.63;66.58
71126;BME280;58785;55.566;38.058;2023-02-16T07:43:41;101178.63;;;-0.71;67.08
71126;BME280;58785;55.566;38.058;2023-02-16T07:46:07;101182.56;;;-0.58;67.30
71126;BME280;58785;55.566;38.058;2023-02-16T07:48:33;101184.91;;;-0.49;66.92
71126;BME280;58785;55.566;38.058;2023-02-16T07:50:59;101182.91;;;-0.42;66.33
71126;BME280;58785;55.566;38.058;2023-02-16T07:53:25;101183.19;;;-0.50;66.18
71126;BME280;58785;55.566;38.058;2023-02-16T07:55:50;101188.09;;;-0.41;66.48
71126;BME280;58785;55.566;38.058;2023-02-16T07:58:16;101184.47;;;-0.37;66.34
71126;BME280;58785;55.566;38.058;2023-02-16T08:01:05;101173.22;;;-0.40;66.12
71126;BME280;58785;55.566;38.058;2023-02-16T08:03:31;101181.50;;;-0.26;65.84
71126;BME280;58785;55.566;38.058;2023-02-16T08:06:02;101180.09;;;-0.11;65.16
71126;BME280;58785;55.566;38.058;2023-02-16T08:08:28;101172.03;;;-0.05;65.17
71126;BME280;58785;55.566;38.058;2023-02-16T08:10:54;101183.09;;;0.03;64.91
71126;BME280;58785;55.566;38.058;2023-02-16T08:13:20;101172.56;;;0.05;65.06
71126;BME280;58785;55.566;38.058;2023-02-16T08:15:45;101174.00;;;0.13;64.72
71126;BME280;58785;55.566;38.058;2023-02-16T08:18:11;101180.03;;;0.15;64.62
71126;BME280;58785;55.566;38.058;2023-02-16T08:20:37;101180.75;;;-0.05;64.69
71126;BME280;58785;55.566;38.058;2023-02-16T08:23:03;101182.84;;;0.11;64.47
71126;BME280;58785;55.566;38.058;2023-02-16T08:25:35;101183.66;;;0.36;63.71
71126;BME280;58785;55.566;38.058;2023-02-16T08:28:01;101169.78;;;0.33;63.63
71126;BME280;58785;55.566;38.058;2023-02-16T08:30:26;101164.09;;;0.21;63.48
71126;BME280;58785;55.566;38.058;2023-02-16T08:32:52;101170.00;;;0.26;63.62
71126;BME280;58785;55.566;38.058;2023-02-16T08:35:21;101181.75;;;0.40;63.26
71126;BME280;58785;55.566;38.058;2023-02-16T08:37:47;101177.41;;;0.39;63.10
71126;BME280;58785;55.566;38.058;2023-02-16T08:40:12;101185.19;;;0.42;63.14
71126;BME280;58785;55.566;38.058;2023-02-16T08:42:38;101178.13;;;0.44;62.89
71126;BME280;58785;55.566;38.058;2023-02-16T08:45:04;101159.03;;;0.40;62.94
71126;BME280;58785;55.566;38.058;2023-02-16T08:47:32;101175.31;;;0.48;62.26
71126;BME280;58785;55.566;38.058;2023-02-16T08:49:58;101161.97;;;0.54;62.28
71126;BME280;58785;55.566;38.058;2023-02-16T08:52:24;101166.59;;;0.71;61.86
71126;BME280;58785;55.566;38.058;2023-02-16T08:54:49;101156.88;;;0.73;61.92
71126;BME280;58785;55.566;38.058;2023-02-16T08:57:15;101164.47;;;0.81;60.92
71126;BME280;58785;55.566;38.058;2023-02-16T08:59:40;101168.03;;;0.78;60.94
71126;BME280;58785;55.566;38.058;2023-02-16T09:02:06;101168.75;;;0.60;60.92
71126;BME280;58785;55.566;38.058;2023-02-16T09:04:32;101158.78;;;0.46;61.40
71126;BME280;58785;55.566;38.058;2023-02-16T09:06:58;101171.56;;;0.32;61.58
71126;BME280;58785;55.566;38.058;2023-02-16T09:09:25;101144.50;;;0.07;61.79
71126;BME280;58785;55.566;38.058;2023-02-16T09:11:51;101161.94;;;0.08;62.11
71126;BME280;58785;55.566;38.058;2023-02-16T09:14:17;101172.75;;;0.00;61.93
71126;BME280;58785;55.566;38.058;2023-02-16T09:16:44;101162.97;;;-0.21;61.83
71126;BME280;58785;55.566;38.058;2023-02-16T09:19:16;101156.78;;;-0.19;61.65
71126;BME280;58785;55.566;38.058;2023-02-16T09:21:43;101174.28;;;-0.19;62.22
71126;BME280;58785;55.566;38.058;2023-02-16T09:24:09;101169.03;;;-0.19;62.03
71126;BME280;58785;55.566;38.058;2023-02-16T09:26:37;101163.41;;;-0.34;61.60
71126;BME280;58785;55.566;38.058;2023-02-16T09:29:04;101165.03;;;-0.30;61.71
71126;BME280;58785;55.566;38.058;2023-02-16T09:31:33;101160.69;;;-0.06;61.35
71126;BME280;58785;55.566;38.058;2023-02-16T09:34:04;101153.03;;;0.13;60.59
71126;BME280;58785;55.566;38.058;2023-02-16T09:36:32;101134.94;;;0.06;60.58
71126;BME280;58785;55.566;38.058;2023-02-16T09:38:58;101156.78;;;0.29;60.12
71126;BME280;58785;55.566;38.058;2023-02-16T09:46:55;101161.69;;;0.15;59.39
71126;BME280;58785;55.566;38.058;2023-02-16T09:49:29;101145.31;;;0.09;59.41
71126;BME280;58785;55.566;38.058;2023-02-16T09:52:34;101156.22;;;0.21;58.15
71126;BME280;58785;55.566;38.058;2023-02-16T09:55:05;101155.66;;;0.13;58.80
71126;BME280;58785;55.566;38.058;2023-02-16T09:57:43;101151.13;;;0.17;59.53
71126;BME280;58785;55.566;38.058;2023-02-16T10:00:20;101157.47;;;0.11;59.05
71126;BME280;58785;55.566;38.058;2023-02-16T10:05:46;101158.81;;;-0.02;58.92
71126;BME280;58785;55.566;38.058;2023-02-16T10:08:36;101149.47;;;-0.09;59.24
71126;BME280;58785;55.566;38.058;2023-02-16T10:11:10;101150.34;;;0.15;58.79
71126;BME280;58785;55.566;38.058;2023-02-16T10:14:43;101149.16;;;-0.02;58.57
71126;BME280;58785;55.566;38.058;2023-02-16T10:25:42;101146.00;;;-0.10;58.20
71126;BME280;58785;55.566;38.058;2023-02-16T10:28:16;101146.78;;;-0.08;58.07
71126;BME280;58785;55.566;38.058;2023-02-16T10:31:03;101131.72;;;-0.03;58.25
71126;BME280;58785;55.566;38.058;2023-02-16T10:33:51;101146.81;;;0.16;57.99
71126;BME280;58785;55.566;38.058;2023-02-16T10:36:54;101135.66;;;0.09;57.72
71126;BME280;58785;55.566;38.058;2023-02-16T10:44:58;101130.84;;;0.45;55.87
71126;BME280;58785;55.566;38.058;2023-02-16T10:47:34;101136.72;;;0.52;55.35
71126;BME280;58785;55.566;38.058;2023-02-16T10:50:03;101124.03;;;0.40;54.96
71126;BME280;58785;55.566;38.058;2023-02-16T10:52:34;101137.06;;;0.43;54.74
71126;BME280;58785;55.566;38.058;2023-02-16T10:55:01;101124.88;;;0.42;54.95
71126;BME280;58785;55.566;38.058;2023-02-16T10:57:31;101133.19;;;0.53;55.46
71126;BME280;58785;55.566;38.058;2023-02-16T11:00:10;101120.06;;;0.53;55.57
71126;BME280;58785;55.566;38.058;2023-02-16T11:02:44;101130.19;;;0.39;55.06
71126;BME280;58785;55.566;38.058;2023-02-16T11:05:33;101113.50;;;0.18;55.67
71126;BME280;58785;55.566;38.058;2023-02-16T11:08:00;101113.41;;;0.21;56.04
71126;BME280;58785;55.566;38.058;2023-02-16T11:10:39;101124.06;;;0.16;55.90
71126;BME280;58785;55.566;38.058;2023-02-16T11:13:06;101124.06;;;0.16;56.38
71126;BME280;58785;55.566;38.058;2023-02-16T11:15:36;101123.41;;;0.10;55.68
71126;BME280;58785;55.566;38.058;2023-02-16T11:18:07;101131.34;;;0.08;55.78
71126;BME280;58785;55.566;38.058;2023-02-16T11:28:35;101132.81;;;-0.58;56.29
71126;BME280;58785;55.566;38.058;2023-02-16T11:31:13;101126.31;;;-0.73;55.88
71126;BME280;58785;55.566;38.058;2023-02-16T11:33:59;101119.91;;;-0.91;56.23
71126;BME280;58785;55.566;38.058;2023-02-16T11:36:28;101133.66;;;-0.84;56.58
71126;BME280;58785;55.566;38.058;2023-02-16T11:39:13;101121.28;;;-0.79;56.25
71126;BME280;58785;55.566;38.058;2023-02-16T11:42:02;101126.59;;;-0.55;55.41
71126;BME280;58785;55.566;38.058;2023-02-16T11:44:41;101117.59;;;-0.47;55.08
71126;BME280;58785;55.566;38.058;2023-02-16T11:47:33;101114.88;;;-0.20;54.80
71126;BME280;58785;55.566;38.058;2023-02-16T11:52:47;101116.00;;;0.44;53.64
71126;BME280;58785;55.566;38.058;2023-02-16T11:55:29;101121.03;;;0.50;53.54
71126;BME280;58785;55.566;38.058;2023-02-16T11:58:22;101103.41;;;0.54;53.39
71126;BME280;58785;55.566;38.058;2023-02-16T12:11:56;101115.25;;;-0.31;55.95
71126;BME280;58785;55.566;38.058;2023-02-16T12:25:36;101125.03;;;-0.61;56.00
71126;BME280;58785;55.566;38.058;2023-02-16T12:30:59;101133.25;;;-0.72;55.44
71126;BME280;58785;55.566;38.058;2023-02-16T12:36:47;101129.69;;;-0.96;56.06
71126;BME280;58785;55.566;38.058;2023-02-16T12:39:29;101124.50;;;-0.97;56.62
71126;BME280;58785;55.566;38.058;2023-02-16T12:42:33;101123.78;;;-1.02;56.31
71126;BME280;58785;55.566;38.058;2023-02-16T12:45:22;101115.25;;;-1.07;56.30
71126;BME280;58785;55.566;38.058;2023-02-16T12:47:54;101117.75;;;-1.04;56.67
71126;BME280;58785;55.566;38.058;2023-02-16T12:50:30;101129.63;;;-0.94;56.18
71126;BME280;58785;55.566;38.058;2023-02-16T12:53:07;101126.97;;;-0.93;56.53
71126;BME280;58785;55.566;38.058;2023-02-16T12:55:45;101134.75;;;-0.91;56.19
71126;BME280;58785;55.566;38.058;2023-02-16T12:58:28;101123.53;;;-0.95;56.49
71126;BME280;58785;55.566;38.058;2023-02-16T13:00:57;101129.41;;;-0.87;56.49
71126;BME280;58785;55.566;38.058;2023-02-16T13:03:35;101135.06;;;-0.74;56.43
71126;BME280;58785;55.566;38.058;2023-02-16T13:09:12;101138.19;;;-0.63;56.13
71126;BME280;58785;55.566;38.058;2023-02-16T13:11:48;101135.81;;;-0.70;56.64
71126;BME280;58785;55.566;38.058;2023-02-16T13:14:21;101138.66;;;-0.76;57.01
71126;BME280;58785;55.566;38.058;2023-02-16T13:17:01;101129.00;;;-1.02;57.60
71126;BME280;58785;55.566;38.058;2023-02-16T13:19:28;101140.44;;;-1.05;57.70
71126;BME280;58785;55.566;38.058;2023-02-16T13:30:50;101137.56;;;-1.53;58.13
71126;BME280;58785;55.566;38.058;2023-02-16T13:44:14;101143.53;;;-2.09;60.01
71126;BME280;58785;55.566;38.058;2023-02-16T13:46:47;101142.78;;;-2.14;59.82
71126;BME280;58785;55.566;38.058;2023-02-16T13:49:31;101139.47;;;-2.19;59.90
71126;BME280;58785;55.566;38.058;2023-02-16T13:51:57;101138.66;;;-2.22;59.99
71126;BME280;58785;55.566;38.058;2023-02-16T13:54:32;101144.03;;;-2.27;60.41
71126;BME280;58785;55.566;38.058;2023-02-16T13:57:00;101147.66;;;-2.33;60.55
71126;BME280;58785;55.566;38.058;2023-02-16T14:01:55;101137.75;;;-2.54;61.05
71126;BME280;58785;55.566;38.058;2023-02-16T14:06:57;101137.13;;;-2.64;61.51
71126;BME280;58785;55.566;38.058;2023-02-16T14:30:51;101145.13;;;-3.05;61.44
71126;BME280;58785;55.566;38.058;2023-02-16T14:33:21;101135.06;;;-3.21;61.84
71126;BME280;58785;55.566;38.058;2023-02-16T14:40:55;101150.72;;;-3.21;62.17
71126;BME280;58785;55.566;38.058;2023-02-16T14:43:44;101149.09;;;-3.26;62.27
71126;BME280;58785;55.566;38.058;2023-02-16T14:48:49;101157.00;;;-3.31;62.60
71126;BME280;58785;55.566;38.058;2023-02-16T14:57:55;101139.84;;;-3.41;63.27
71126;BME280;58785;55.566;38.058;2023-02-16T15:03:20;101151.38;;;-3.50;63.18
71126;BME280;58785;55.566;38.058;2023-02-16T15:06:00;101134.22;;;-3.61;62.88
71126;BME280;58785;55.566;38.058;2023-02-16T15:08:35;101156.72;;;-3.57;63.06
71126;BME280;58785;55.566;38.058;2023-02-16T15:11:15;101154.16;;;-3.59;62.92
71126;BME280;58785;55.566;38.058;2023-02-16T15:13:44;101155.22;;;-3.67;63.28
71126;BME280;58785;55.566;38.058;2023-02-16T15:16:12;101162.09;;;-3.65;63.45
71126;BME280;58785;55.566;38.058;2023-02-16T15:18:45;101167.34;;;-3.66;63.52
71126;BME280;58785;55.566;38.058;2023-02-16T15:21:23;101163.06;;;-3.69;63.98
71126;BME280;58785;55.566;38.058;2023-02-16T15:23:54;101163.09;;;-3.70;64.26
71126;BME280;58785;55.566;38.058;2023-02-16T15:26:23;101164.03;;;-3.74;64.08
71126;BME280;58785;55.566;38.058;2023-02-16T15:28:57;101162.44;;;-3.80;64.21
71126;BME280;58785;55.566;38.058;2023-02-16T15:31:35;101159.94;;;-3.86;64.70
71126;BME280;58785;55.566;38.058;2023-02-16T15:34:02;101169.56;;;-3.91;65.03
71126;BME280;58785;55.566;38.058;2023-02-16T15:36:40;101173.06;;;-3.92;65.04
71126;BME280;58785;55.566;38.058;2023-02-16T15:39:15;101169.50;;;-3.87;65.23
71126;BME280;58785;55.566;38.058;2023-02-16T15:41:47;101173.75;;;-3.83;65.31
71126;BME280;58785;55.566;38.058;2023-02-16T15:44:31;101171.03;;;-3.77;65.09